Time;durP1;ratioP1;P1;durP2;ratioP2;P2;SDS_P1;SDS_P2;PMS_P1;PMS_P2;Temp;Humidity;BMP_temperature;BMP_pressure;BME280_temperature;BME280_humidity;BME280_pressure;Samples;Min_cycle;Max_cycle;Signal;HPM_P1;HPM_P2
2021/12/24 00:00:17;;;;;;;17.02;9.05;;;;;;;;;;5016155;28;20034;-72
2021/12/24 00:02:43;;;;;;;19.75;9.23;;;;;;;;;;5017602;28;20037;-72
2021/12/24 00:05:10;;;;;;;16.40;9.05;;;;;;;;;;5017173;28;20188;-72
2021/12/24 00:07:36;;;;;;;17.92;8.80;;;;;;;;;;5017352;28;20065;-72
2021/12/24 00:10:04;;;;;;;19.85;9.80;;;;;;;;;;5017412;28;20651;-72
2021/12/24 00:12:33;;;;;;;16.63;9.48;;;;;;;;;;5017483;28;20030;-72
2021/12/24 00:15:07;;;;;;;15.23;9.10;;;;;;;;;;5017405;28;20493;-72
2021/12/24 00:17:35;;;;;;;16.40;9.55;;;;;;;;;;5017148;28;20490;-72
2021/12/24 00:20:16;;;;;;;18.05;8.77;;;;;;;;;;5017272;28;20033;-72
2021/12/24 00:36:02;;;;;;;14.80;8.80;;;;;;;;;;5022677;28;20416;-72
2021/12/24 00:38:28;;;;;;;16.10;9.10;;;;;;;;;;5017117;28;20516;-73
2021/12/24 00:40:55;;;;;;;19.80;9.77;;;;;;;;;;5016822;28;20117;-73
2021/12/24 00:43:21;;;;;;;17.23;9.02;;;;;;;;;;5017424;28;20637;-73
2021/12/24 00:45:49;;;;;;;15.30;8.95;;;;;;;;;;5017346;28;20476;-72
2021/12/24 00:48:18;;;;;;;17.15;8.80;;;;;;;;;;5017193;28;20515;-72
2021/12/24 00:51:07;;;;;;;15.50;8.85;;;;;;;;;;5017100;28;20046;-73
2021/12/24 00:56:13;;;;;;;17.98;8.57;;;;;;;;;;5018492;28;20145;-73
2021/12/24 00:58:40;;;;;;;17.15;8.32;;;;;;;;;;5013362;28;20045;-73
2021/12/24 01:01:09;;;;;;;15.35;9.00;;;;;;;;;;5012903;28;20377;-73
2021/12/24 01:03:35;;;;;;;15.02;8.18;;;;;;;;;;5014291;28;20496;-73
2021/12/24 01:06:03;;;;;;;14.68;8.15;;;;;;;;;;5013678;28;20057;-73
2021/12/24 01:08:28;;;;;;;19.38;9.25;;;;;;;;;;5013902;28;20476;-72
2021/12/24 01:10:58;;;;;;;18.50;8.68;;;;;;;;;;5013991;28;20129;-73
2021/12/24 01:13:25;;;;;;;15.75;8.38;;;;;;;;;;5012562;28;20049;-73
2021/12/24 01:21:14;;;;;;;14.25;8.40;;;;;;;;;;5013463;28;20030;-72
2021/12/24 01:23:49;;;;;;;14.07;8.45;;;;;;;;;;5013249;28;20431;-73
2021/12/24 01:45:18;;;;;;;16.10;8.38;;;;;;;;;;5017620;28;20034;-73
2021/12/24 01:47:44;;;;;;;14.48;8.13;;;;;;;;;;5012892;28;20507;-73
2021/12/24 01:50:14;;;;;;;16.70;8.23;;;;;;;;;;5013061;28;20042;-72
2021/12/24 01:52:40;;;;;;;16.10;8.32;;;;;;;;;;5010722;28;20042;-73
2021/12/24 01:55:08;;;;;;;16.00;8.55;;;;;;;;;;5011818;28;20041;-73
2021/12/24 01:57:36;;;;;;;13.65;8.10;;;;;;;;;;5011909;28;20049;-73
2021/12/24 02:00:05;;;;;;;13.57;8.38;;;;;;;;;;5012474;28;20041;-73
2021/12/24 02:02:31;;;;;;;14.02;7.70;;;;;;;;;;5012370;28;20082;-73
2021/12/24 02:04:57;;;;;;;16.50;9.00;;;;;;;;;;5011858;28;20042;-73
2021/12/24 02:07:23;;;;;;;16.83;8.50;;;;;;;;;;5011924;28;20368;-73
2021/12/24 02:09:49;;;;;;;16.23;8.57;;;;;;;;;;5011815;28;20050;-73
2021/12/24 02:12:16;;;;;;;15.77;8.35;;;;;;;;;;5011872;28;20080;-73
2021/12/24 02:14:46;;;;;;;14.20;7.57;;;;;;;;;;5012060;28;20144;-73
2021/12/24 02:28:39;;;;;;;14.68;8.00;;;;;;;;;;5017379;28;20034;-72
2021/12/24 02:31:08;;;;;;;15.38;8.05;;;;;;;;;;5011680;28;20492;-73
2021/12/24 02:33:34;;;;;;;14.40;7.47;;;;;;;;;;5011860;28;20038;-73
2021/12/24 02:36:01;;;;;;;15.15;7.80;;;;;;;;;;5009089;28;20037;-73
2021/12/24 02:38:27;;;;;;;15.77;7.88;;;;;;;;;;5011271;28;20048;-73
2021/12/24 02:40:53;;;;;;;15.93;8.05;;;;;;;;;;5011531;28;20038;-73
2021/12/24 02:43:21;;;;;;;13.75;7.40;;;;;;;;;;4994199;28;20395;-72
2021/12/24 02:45:49;;;;;;;14.85;7.80;;;;;;;;;;5011631;28;20476;-73
2021/12/24 02:54:21;;;;;;;12.55;6.68;;;;;;;;;;5015296;28;20379;-73
2021/12/24 02:56:45;;;;;;;17.42;8.48;;;;;;;;;;5010400;28;20059;-73
2021/12/24 02:59:13;;;;;;;15.10;8.27;;;;;;;;;;5011352;28;20487;-73
2021/12/24 03:01:43;;;;;;;17.10;8.13;;;;;;;;;;5011505;28;20046;-73
2021/12/24 03:04:09;;;;;;;14.43;7.97;;;;;;;;;;5011194;28;20168;-73
2021/12/24 03:06:38;;;;;;;16.42;8.73;;;;;;;;;;5011463;28;20041;-73
2021/12/24 03:09:07;;;;;;;16.65;8.02;;;;;;;;;;5010861;28;20042;-73
2021/12/24 03:11:34;;;;;;;14.63;7.97;;;;;;;;;;5011241;28;20499;-73
2021/12/24 03:14:02;;;;;;;11.93;7.45;;;;;;;;;;5011424;28;20030;-73
2021/12/24 03:16:29;;;;;;;14.25;8.30;;;;;;;;;;5011482;28;20042;-73
2021/12/24 03:18:55;;;;;;;13.27;7.88;;;;;;;;;;5010884;28;20042;-73
2021/12/24 03:21:33;;;;;;;15.90;8.60;;;;;;;;;;5010184;28;20122;-74
2021/12/24 03:26:37;;;;;;;13.70;7.43;;;;;;;;;;5010567;28;20037;-73
2021/12/24 03:29:05;;;;;;;12.05;6.88;;;;;;;;;;5011221;28;20480;-73
2021/12/24 03:31:32;;;;;;;12.48;7.25;;;;;;;;;;5011100;28;20038;-73
2021/12/24 03:33:58;;;;;;;14.25;6.88;;;;;;;;;;5010617;28;20033;-73
2021/12/24 03:36:26;;;;;;;12.55;7.30;;;;;;;;;;5010812;28;20042;-72
2021/12/24 03:38:53;;;;;;;13.98;6.72;;;;;;;;;;5010289;28;20030;-73
2021/12/24 03:41:19;;;;;;;11.15;6.40;;;;;;;;;;5010957;28;20053;-73
2021/12/24 03:43:46;;;;;;;11.18;6.35;;;;;;;;;;5010475;28;20033;-73
2021/12/24 03:46:16;;;;;;;12.07;6.43;;;;;;;;;;5009067;28;20050;-73
2021/12/24 03:56:21;;;;;;;9.63;6.03;;;;;;;;;;5014980;28;20041;-73
2021/12/24 03:58:47;;;;;;;10.13;5.32;;;;;;;;;;5010651;28;20057;-73
2021/12/24 04:01:13;;;;;;;9.75;5.82;;;;;;;;;;5010235;28;20044;-72
2021/12/24 04:03:39;;;;;;;11.50;6.03;;;;;;;;;;5010065;28;20335;-72
2021/12/24 04:06:05;;;;;;;11.32;5.93;;;;;;;;;;5010157;28;20064;-71
2021/12/24 04:08:31;;;;;;;10.25;6.10;;;;;;;;;;5010161;28;20050;-72
2021/12/24 04:10:57;;;;;;;10.30;6.00;;;;;;;;;;5010487;28;20064;-73
2021/12/24 04:13:23;;;;;;;11.00;6.38;;;;;;;;;;5010281;28;20504;-74
2021/12/24 04:15:49;;;;;;;9.68;5.95;;;;;;;;;;5010226;28;20496;-71
2021/12/24 04:18:20;;;;;;;11.45;6.32;;;;;;;;;;5010039;28;20041;-73
2021/12/24 04:26:16;;;;;;;11.32;5.75;;;;;;;;;;5012699;28;20396;-73
2021/12/24 04:28:42;;;;;;;9.10;5.60;;;;;;;;;;5010138;28;20046;-73
2021/12/24 04:31:08;;;;;;;11.40;6.00;;;;;;;;;;5008315;28;20365;-73
2021/12/24 04:33:39;;;;;;;11.38;6.15;;;;;;;;;;5012874;28;20072;-73
2021/12/24 04:36:21;;;;;;;9.48;5.97;;;;;;;;;;5013916;28;20049;-73
2021/12/24 05:03:29;;;;;;;13.00;7.18;;;;;;;;;;5017385;28;20416;-73
2021/12/24 05:06:35;;;;;;;12.23;6.75;;;;;;;;;;5014352;28;20472;-73
2021/12/24 05:11:14;;;;;;;13.73;7.95;;;;;;;;;;5014009;28;20472;-73
2021/12/24 05:13:40;;;;;;;14.93;7.78;;;;;;;;;;5013580;28;20042;-73
2021/12/24 05:21:32;;;;;;;14.35;8.32;;;;;;;;;;5014652;28;20022;-73
2021/12/24 05:21:50;;;;;;;12.77;7.78;;;;;;;;;;5013546;28;20026;-73
2021/12/24 05:24:18;;;;;;;17.38;8.52;;;;;;;;;;5013082;28;20049;-73
2021/12/24 05:26:48;;;;;;;12.45;7.72;;;;;;;;;;5013516;28;20041;-73
2021/12/24 05:29:15;;;;;;;13.05;7.95;;;;;;;;;;5013496;28;20041;-74
2021/12/24 05:31:45;;;;;;;14.07;7.55;;;;;;;;;;5013252;28;20033;-73
2021/12/24 05:34:14;;;;;;;13.30;7.43;;;;;;;;;;5013354;28;20048;-74
2021/12/24 05:36:43;;;;;;;15.02;8.63;;;;;;;;;;5012688;28;20034;-73
2021/12/24 05:39:10;;;;;;;13.75;7.90;;;;;;;;;;5012868;28;20046;-73
2021/12/24 05:41:38;;;;;;;13.55;8.30;;;;;;;;;;5012955;28;20053;-74
2021/12/24 05:44:04;;;;;;;14.50;8.35;;;;;;;;;;5012189;28;20116;-73
2021/12/24 05:46:30;;;;;;;16.45;9.05;;;;;;;;;;5013603;28;20044;-73
2021/12/24 05:48:56;;;;;;;17.27;8.88;;;;;;;;;;5012934;28;20064;-74
2021/12/24 05:51:22;;;;;;;19.73;9.40;;;;;;;;;;5012052;28;20034;-73
2021/12/24 05:53:48;;;;;;;18.08;9.35;;;;;;;;;;5013217;28;20062;-73
2021/12/24 05:56:14;;;;;;;16.13;8.57;;;;;;;;;;5013099;28;20056;-73
2021/12/24 05:58:40;;;;;;;16.02;10.00;;;;;;;;;;5012527;28;20044;-73
2021/12/24 06:01:07;;;;;;;18.65;9.45;;;;;;;;;;5012856;28;20038;-72
2021/12/24 06:03:33;;;;;;;17.55;9.55;;;;;;;;;;5012878;28;20420;-73
2021/12/24 06:05:59;;;;;;;16.55;9.48;;;;;;;;;;5012840;28;20045;-73
2021/12/24 06:08:25;;;;;;;18.88;9.52;;;;;;;;;;5012840;28;20088;-72
2021/12/24 06:10:51;;;;;;;17.98;9.10;;;;;;;;;;5012834;28;20038;-73
2021/12/24 06:13:17;;;;;;;18.60;9.32;;;;;;;;;;5011183;28;20559;-72
2021/12/24 06:15:46;;;;;;;16.95;10.30;;;;;;;;;;5012658;28;20041;-73
2021/12/24 06:18:23;;;;;;;19.20;9.82;;;;;;;;;;5012776;28;20042;-72
2021/12/24 06:20:50;;;;;;;16.88;8.75;;;;;;;;;;5012894;28;20049;-73
2021/12/24 06:23:18;;;;;;;18.25;10.02;;;;;;;;;;5012531;28;20038;-73
2021/12/24 06:25:44;;;;;;;15.05;9.43;;;;;;;;;;5012269;28;20049;-73
2021/12/24 06:28:10;;;;;;;19.55;10.07;;;;;;;;;;5012639;28;20042;-74
2021/12/24 06:30:37;;;;;;;18.75;10.50;;;;;;;;;;5012404;28;20030;-73
2021/12/24 06:33:03;;;;;;;17.92;10.48;;;;;;;;;;5012180;28;20026;-73
2021/12/24 06:35:29;;;;;;;20.65;11.30;;;;;;;;;;5011127;28;20353;-74
2021/12/24 06:37:56;;;;;;;16.50;9.93;;;;;;;;;;5011986;28;20064;-74
2021/12/24 06:40:23;;;;;;;17.45;9.98;;;;;;;;;;5012106;28;20053;-74
2021/12/24 06:42:49;;;;;;;19.23;10.63;;;;;;;;;;5012497;28;20400;-74
2021/12/24 06:45:21;;;;;;;21.00;10.52;;;;;;;;;;5010505;28;20038;-74
2021/12/24 06:47:47;;;;;;;17.70;10.27;;;;;;;;;;5010904;28;20037;-73
2021/12/24 06:50:14;;;;;;;19.52;10.32;;;;;;;;;;5010652;28;20041;-74
2021/12/24 06:52:39;;;;;;;17.38;10.73;;;;;;;;;;5011393;28;20511;-71
2021/12/24 06:55:06;;;;;;;19.08;10.38;;;;;;;;;;5011632;28;20125;-74
2021/12/24 06:57:32;;;;;;;19.95;10.30;;;;;;;;;;5011127;28;20038;-74
2021/12/24 06:59:58;;;;;;;22.33;10.35;;;;;;;;;;5011514;28;20030;-71
2021/12/24 07:02:24;;;;;;;18.50;9.55;;;;;;;;;;5011319;28;20120;-72
2021/12/24 07:04:49;;;;;;;16.73;10.27;;;;;;;;;;5002655;22;20081;-72
2021/12/24 07:07:15;;;;;;;16.38;9.20;;;;;;;;;;4991743;28;20065;-72
2021/12/24 07:09:42;;;;;;;19.88;10.15;;;;;;;;;;4992558;28;20210;-72
2021/12/24 07:12:11;;;;;;;15.80;10.18;;;;;;;;;;4993063;28;20045;-73
2021/12/24 07:14:38;;;;;;;17.05;9.35;;;;;;;;;;4991997;28;20440;-73
2021/12/24 07:17:04;;;;;;;17.23;10.23;;;;;;;;;;4992290;28;20054;-73
2021/12/24 07:19:30;;;;;;;17.85;10.10;;;;;;;;;;4991884;28;20026;-74
2021/12/24 07:21:56;;;;;;;16.40;9.13;;;;;;;;;;4991699;28;20028;-72
2021/12/24 07:24:22;;;;;;;18.13;9.70;;;;;;;;;;4991668;28;20383;-71
2021/12/24 07:26:48;;;;;;;17.95;10.25;;;;;;;;;;4992166;28;20129;-73
2021/12/24 07:29:14;;;;;;;17.05;9.88;;;;;;;;;;4991570;28;20483;-73
2021/12/24 07:31:40;;;;;;;15.82;10.13;;;;;;;;;;4996147;28;20041;-73
2021/12/24 07:34:06;;;;;;;17.02;10.75;;;;;;;;;;5009569;28;20081;-73
2021/12/24 07:36:32;;;;;;;20.63;10.55;;;;;;;;;;5010629;28;20038;-74
2021/12/24 07:38:58;;;;;;;21.20;11.45;;;;;;;;;;5011506;28;20041;-73
2021/12/24 07:41:25;;;;;;;75.93;47.15;;;;;;;;;;5010918;28;20420;-73
2021/12/24 07:43:51;;;;;;;30.90;19.08;;;;;;;;;;5011046;28;20046;-73
2021/12/24 07:46:19;;;;;;;24.13;11.95;;;;;;;;;;5010893;28;20054;-73
2021/12/24 07:48:49;;;;;;;19.50;10.73;;;;;;;;;;5010571;28;20038;-73
2021/12/24 07:54:02;;;;;;;20.50;11.27;;;;;;;;;;5015278;28;20468;-73
2021/12/24 07:56:30;;;;;;;20.73;11.02;;;;;;;;;;5011072;28;20500;-73
2021/12/24 07:59:01;;;;;;;18.33;11.13;;;;;;;;;;5010833;28;20029;-73
2021/12/24 08:01:27;;;;;;;;;;;;;;;;;;5009873;28;20582;-73
2021/12/24 08:03:55;;;;;;;19.08;11.70;;;;;;;;;;5010660;28;19917;-73
2021/12/24 08:06:23;;;;;;;19.02;10.88;;;;;;;;;;5009523;28;20034;-73
2021/12/24 08:08:49;;;;;;;18.90;11.02;;;;;;;;;;5013826;28;20022;-73
2021/12/24 08:11:16;;;;;;;18.42;10.80;;;;;;;;;;5014769;28;20472;-73
2021/12/24 08:13:42;;;;;;;19.13;11.20;;;;;;;;;;5014804;28;20361;-73
2021/12/24 08:16:09;;;;;;;18.35;11.27;;;;;;;;;;5008932;28;20042;-73
2021/12/24 08:18:36;;;;;;;23.85;12.32;;;;;;;;;;4995075;28;20484;-73
2021/12/24 08:21:03;;;;;;;28.10;15.43;;;;;;;;;;4994926;28;20034;-74
2021/12/24 08:23:29;;;;;;;19.58;12.75;;;;;;;;;;4995189;28;20034;-74
2021/12/24 08:25:58;;;;;;;19.00;10.38;;;;;;;;;;4993925;28;20535;-73
2021/12/24 08:28:26;;;;;;;17.95;10.85;;;;;;;;;;4995247;28;20049;-73
2021/12/24 08:30:53;;;;;;;18.23;9.80;;;;;;;;;;4995406;28;20058;-74
2021/12/24 08:33:19;;;;;;;18.00;9.57;;;;;;;;;;4995041;28;20050;-73
2021/12/24 08:35:45;;;;;;;16.02;9.27;;;;;;;;;;4994643;28;20049;-73
2021/12/24 08:38:11;;;;;;;14.38;8.80;;;;;;;;;;4994868;28;20074;-73
2021/12/24 08:40:37;;;;;;;16.35;9.23;;;;;;;;;;4994544;28;20042;-73
2021/12/24 08:43:03;;;;;;;14.88;8.45;;;;;;;;;;4994423;28;20480;-73
2021/12/24 08:45:29;;;;;;;13.13;8.00;;;;;;;;;;5002400;28;20030;-73
2021/12/24 08:47:55;;;;;;;13.88;7.45;;;;;;;;;;5012990;28;20100;-73
2021/12/24 08:50:21;;;;;;;16.40;7.35;;;;;;;;;;5013852;28;20108;-73
2021/12/24 08:52:47;;;;;;;13.50;6.88;;;;;;;;;;5013652;28;20528;-73
2021/12/24 08:55:14;;;;;;;12.70;7.22;;;;;;;;;;5014783;28;20187;-72
2021/12/24 08:57:41;;;;;;;15.88;7.38;;;;;;;;;;5013868;28;20045;-73
2021/12/24 09:00:09;;;;;;;13.30;6.43;;;;;;;;;;5015799;28;20046;-73
2021/12/24 09:02:38;;;;;;;12.73;6.55;;;;;;;;;;5014625;28;20030;-73
2021/12/24 09:05:06;;;;;;;10.85;6.13;;;;;;;;;;5016165;28;20345;-72
2021/12/24 09:07:32;;;;;;;13.27;6.80;;;;;;;;;;5017948;28;20042;-73
2021/12/24 09:09:59;;;;;;;11.88;6.60;;;;;;;;;;5018155;28;20064;-73
2021/12/24 09:12:25;;;;;;;11.60;6.50;;;;;;;;;;5017855;28;20042;-73
2021/12/24 09:14:53;;;;;;;12.40;6.63;;;;;;;;;;5016826;28;20037;-74
2021/12/24 09:17:21;;;;;;;13.05;6.38;;;;;;;;;;5020054;28;20037;-73
2021/12/24 09:19:50;;;;;;;14.77;6.72;;;;;;;;;;5014965;28;20499;-73
2021/12/24 09:22:18;;;;;;;12.50;6.57;;;;;;;;;;5021837;28;20054;-73
2021/12/24 09:24:50;;;;;;;10.85;6.25;;;;;;;;;;5021130;28;20042;-72
2021/12/24 09:27:19;;;;;;;11.80;6.97;;;;;;;;;;5018681;28;20040;-74
2021/12/24 09:29:44;;;;;;;11.38;6.82;;;;;;;;;;5014382;28;20377;-72
2021/12/24 09:32:10;;;;;;;10.90;6.53;;;;;;;;;;5014442;28;20077;-73
2021/12/24 09:34:36;;;;;;;12.77;6.53;;;;;;;;;;5014191;28;20392;-73
2021/12/24 09:37:03;;;;;;;12.07;6.57;;;;;;;;;;5013763;28;20112;-73
2021/12/24 09:39:29;;;;;;;13.45;7.60;;;;;;;;;;5011626;28;20491;-73
2021/12/24 09:41:56;;;;;;;15.82;7.05;;;;;;;;;;4994533;28;20046;-73
2021/12/24 09:44:22;;;;;;;13.07;7.15;;;;;;;;;;4993892;28;20039;-74
2021/12/24 09:46:48;;;;;;;12.05;7.50;;;;;;;;;;4993734;28;20105;-74
2021/12/24 09:49:14;;;;;;;14.63;7.28;;;;;;;;;;4993790;28;20045;-73
2021/12/24 09:51:44;;;;;;;15.13;9.27;;;;;;;;;;4993871;28;20038;-73
2021/12/24 09:54:16;;;;;;;15.23;8.48;;;;;;;;;;4993714;28;20488;-73
2021/12/24 09:56:43;;;;;;;9.52;6.45;;;;;;;;;;4993718;28;20030;-74
2021/12/24 09:59:10;;;;;;;11.80;6.50;;;;;;;;;;4993730;28;20042;-73
2021/12/24 10:01:43;;;;;;;13.75;7.35;;;;;;;;;;4991789;28;20539;-73
2021/12/24 10:04:15;;;;;;;11.52;6.90;;;;;;;;;;4992964;28;20505;-73
2021/12/24 10:06:54;;;;;;;10.43;6.43;;;;;;;;;;4993108;28;20452;-73
2021/12/24 10:09:27;;;;;;;14.82;6.80;;;;;;;;;;4993390;28;20045;-73
2021/12/24 10:11:59;;;;;;;12.00;6.63;;;;;;;;;;4992623;28;20038;-73
2021/12/24 10:14:41;;;;;;;10.85;6.32;;;;;;;;;;4992610;28;20038;-73
2021/12/24 10:17:17;;;;;;;12.40;6.40;;;;;;;;;;4992991;28;20042;-73
2021/12/24 10:19:52;;;;;;;11.73;6.47;;;;;;;;;;4992670;28;20398;-73
2021/12/24 10:22:19;;;;;;;12.63;6.15;;;;;;;;;;4992753;28;20420;-73
2021/12/24 10:25:05;;;;;;;11.05;6.00;;;;;;;;;;4992695;28;20041;-73
2021/12/24 10:27:34;;;;;;;13.68;8.27;;;;;;;;;;4991809;28;20511;-73
2021/12/24 10:30:15;;;;;;;14.73;7.95;;;;;;;;;;4992376;28;20058;-74
2021/12/24 10:32:41;;;;;;;;;;;;;;;;;;4993047;28;20038;-73
2021/12/24 10:35:27;;;;;;;11.60;6.30;;;;;;;;;;4993339;28;19913;-73
2021/12/24 10:38:22;;;;;;;12.20;6.25;;;;;;;;;;4991484;28;20061;-73
2021/12/24 10:40:55;;;;;;;11.98;5.93;;;;;;;;;;4992841;28;20037;-72
2021/12/24 10:43:24;;;;;;;11.90;6.28;;;;;;;;;;4992471;28;20030;-73
2021/12/24 10:46:17;;;;;;;11.10;6.13;;;;;;;;;;4992306;28;20034;-73
2021/12/24 10:49:03;;;;;;;12.50;6.30;;;;;;;;;;4992408;28;20509;-73
2021/12/24 10:54:29;;;;;;;13.85;5.90;;;;;;;;;;4973810;28;20052;-73
2021/12/24 10:57:15;;;;;;;11.27;6.32;;;;;;;;;;5012324;28;20034;-73
2021/12/24 10:59:43;;;;;;;10.85;6.05;;;;;;;;;;5011047;28;20038;-73
2021/12/24 11:02:11;;;;;;;12.13;5.78;;;;;;;;;;5011962;28;20045;-73
2021/12/24 11:04:37;;;;;;;12.57;6.70;;;;;;;;;;5011952;28;20049;-73
2021/12/24 11:07:37;;;;;;;13.88;6.40;;;;;;;;;;5011516;28;20037;-72
2021/12/24 11:10:12;;;;;;;12.57;6.72;;;;;;;;;;5012230;28;20404;-73
2021/12/24 11:12:43;;;;;;;11.52;6.45;;;;;;;;;;5010852;28;20037;-72
2021/12/24 11:15:33;;;;;;;12.60;6.80;;;;;;;;;;5011573;28;20058;-73
2021/12/24 11:18:26;;;;;;;15.70;8.65;;;;;;;;;;5011824;28;20046;-72
2021/12/24 11:20:53;;;;;;;12.43;6.10;;;;;;;;;;5011157;28;20542;-72
2021/12/24 11:23:21;;;;;;;11.73;6.57;;;;;;;;;;5011401;28;20049;-72
2021/12/24 11:25:50;;;;;;;14.25;6.53;;;;;;;;;;5009775;28;20041;-73
2021/12/24 11:28:17;;;;;;;12.10;6.43;;;;;;;;;;5010201;28;20588;-74
2021/12/24 11:30:49;;;;;;;15.95;6.25;;;;;;;;;;5011183;28;20037;-73
2021/12/24 11:33:18;;;;;;;11.15;6.40;;;;;;;;;;5011680;28;20041;-73
2021/12/24 11:35:46;;;;;;;13.52;5.88;;;;;;;;;;5010726;28;20460;-73
2021/12/24 11:38:17;;;;;;;12.82;5.53;;;;;;;;;;5009572;28;20046;-73
2021/12/24 11:40:45;;;;;;;11.13;6.10;;;;;;;;;;5011240;28;20037;-72
2021/12/24 11:43:11;;;;;;;12.38;5.93;;;;;;;;;;5008367;28;20534;-72
2021/12/24 11:45:38;;;;;;;11.25;6.57;;;;;;;;;;5004698;28;20043;-73
2021/12/24 11:48:05;;;;;;;14.32;6.05;;;;;;;;;;4991451;28;20038;-73
2021/12/24 11:50:33;;;;;;;12.60;6.60;;;;;;;;;;4991174;28;20047;-73
2021/12/24 11:53:03;;;;;;;14.05;7.28;;;;;;;;;;5009843;28;20042;-73
2021/12/24 11:55:39;;;;;;;11.82;7.03;;;;;;;;;;5009383;28;20049;-73
2021/12/24 11:58:09;;;;;;;11.00;6.85;;;;;;;;;;5009843;28;20038;-73
2021/12/24 12:00:40;;;;;;;13.57;7.60;;;;;;;;;;5011161;28;20041;-74
2021/12/24 12:03:08;;;;;;;11.60;6.97;;;;;;;;;;5010305;28;20042;-73
2021/12/24 12:05:37;;;;;;;13.23;6.53;;;;;;;;;;5010819;28;20515;-73
2021/12/24 12:08:27;;;;;;;12.98;7.57;;;;;;;;;;5010589;28;20053;-73
2021/12/24 12:10:54;;;;;;;13.55;7.47;;;;;;;;;;5007070;28;20042;-73
2021/12/24 12:13:36;;;;;;;12.27;7.28;;;;;;;;;;5009305;28;20038;-73
2021/12/24 12:16:02;;;;;;;13.50;7.72;;;;;;;;;;5011042;28;20042;-73
2021/12/24 12:18:30;;;;;;;12.15;7.35;;;;;;;;;;5010790;28;20045;-73
2021/12/24 12:21:11;;;;;;;14.73;7.65;;;;;;;;;;5010739;28;20503;-73
2021/12/24 12:26:53;;;;;;;12.23;6.97;;;;;;;;;;5010978;28;20037;-73
2021/12/24 12:29:20;;;;;;;12.48;7.50;;;;;;;;;;5009401;28;20135;-73
2021/12/24 12:31:49;;;;;;;14.13;7.85;;;;;;;;;;5010375;28;20060;-73
2021/12/24 12:34:38;;;;;;;17.98;7.93;;;;;;;;;;5010573;28;20485;-73
2021/12/24 12:37:26;;;;;;;13.15;7.50;;;;;;;;;;5010945;28;20057;-73
2021/12/24 12:40:03;;;;;;;13.27;7.40;;;;;;;;;;5011250;28;20034;-73
2021/12/24 12:42:58;;;;;;;13.32;7.30;;;;;;;;;;5010767;28;20038;-73
2021/12/24 12:45:32;;;;;;;15.32;7.95;;;;;;;;;;5010847;28;20412;-73
2021/12/24 12:48:05;;;;;;;13.65;7.50;;;;;;;;;;5010635;28;20041;-72
2021/12/24 12:50:33;;;;;;;11.50;7.10;;;;;;;;;;5010574;28;20369;-72
2021/12/24 12:53:27;;;;;;;12.52;7.47;;;;;;;;;;5005857;28;20481;-72
2021/12/24 12:56:13;;;;;;;13.43;7.30;;;;;;;;;;4992961;28;20031;-72
2021/12/24 12:58:41;;;;;;;12.38;6.65;;;;;;;;;;4994514;28;20046;-72
2021/12/24 13:01:26;;;;;;;12.57;7.07;;;;;;;;;;4994499;28;20050;-72
2021/12/24 13:03:55;;;;;;;13.88;7.75;;;;;;;;;;4994388;28;20509;-72
2021/12/24 13:06:41;;;;;;;12.75;7.65;;;;;;;;;;4994019;28;20034;-72
2021/12/24 13:09:18;;;;;;;11.35;7.10;;;;;;;;;;4994532;28;20496;-72
2021/12/24 13:11:53;;;;;;;11.80;7.10;;;;;;;;;;4994305;28;20045;-72
2021/12/24 13:14:22;;;;;;;12.90;7.03;;;;;;;;;;4994398;28;20047;-72
2021/12/24 13:17:15;;;;;;;14.88;6.97;;;;;;;;;;4994495;28;20038;-72
2021/12/24 13:22:31;;;;;;;14.13;7.43;;;;;;;;;;4993980;28;20030;-73
2021/12/24 13:25:14;;;;;;;12.05;6.65;;;;;;;;;;4994076;28;20481;-73
2021/12/24 13:27:54;;;;;;;10.60;6.53;;;;;;;;;;4994207;28;20404;-72
2021/12/24 13:30:25;;;;;;;14.23;7.57;;;;;;;;;;4994076;28;20038;-73
2021/12/24 13:33:00;;;;;;;12.15;6.53;;;;;;;;;;4993824;28;20038;-73
2021/12/24 13:35:31;;;;;;;12.80;6.85;;;;;;;;;;4994135;28;20038;-73
2021/12/24 13:37:57;;;;;;;10.77;6.27;;;;;;;;;;4993793;28;20026;-73
2021/12/24 13:40:30;;;;;;;12.98;6.53;;;;;;;;;;4995223;28;20030;-73
2021/12/24 13:43:05;;;;;;;12.20;7.05;;;;;;;;;;5011298;28;20049;-73
2021/12/24 13:45:35;;;;;;;11.23;6.85;;;;;;;;;;5013842;28;20049;-73
2021/12/24 13:48:08;;;;;;;9.65;6.10;;;;;;;;;;5013405;28;20510;-74
2021/12/24 13:56:21;;;;;;;10.63;6.82;;;;;;;;;;5017197;28;20033;-73
2021/12/24 13:58:56;;;;;;;11.45;5.85;;;;;;;;;;5013085;28;20396;-73
2021/12/24 14:01:24;;;;;;;9.80;5.43;;;;;;;;;;5012626;28;20061;-73
2021/12/24 14:03:50;;;;;;;7.80;5.28;;;;;;;;;;5012772;28;20045;-73
2021/12/24 14:06:16;;;;;;;10.38;5.22;;;;;;;;;;5011406;28;20049;-73
2021/12/24 14:08:42;;;;;;;8.82;5.40;;;;;;;;;;5013304;28;20038;-73
2021/12/24 14:11:13;;;;;;;7.70;4.95;;;;;;;;;;5013017;28;20048;-73
2021/12/24 14:13:45;;;;;;;13.45;7.63;;;;;;;;;;5013160;28;20038;-74
2021/12/24 14:18:55;;;;;;;10.57;6.25;;;;;;;;;;5018132;28;20057;-73
2021/12/24 14:24:10;;;;;;;9.88;5.85;;;;;;;;;;5012622;28;20026;-73
2021/12/24 14:26:39;;;;;;;12.07;6.88;;;;;;;;;;5012692;28;20046;-73
2021/12/24 14:29:06;;;;;;;12.25;7.13;;;;;;;;;;5012649;28;20050;-73
2021/12/24 14:31:50;;;;;;;10.90;6.15;;;;;;;;;;5012566;28;20034;-73
2021/12/24 14:34:33;;;;;;;9.40;5.57;;;;;;;;;;5012843;28;20042;-73
2021/12/24 14:37:05;;;;;;;11.25;7.53;;;;;;;;;;5012551;28;20045;-73
2021/12/24 14:39:43;;;;;;;13.23;7.15;;;;;;;;;;5012802;28;20046;-73
2021/12/24 14:42:21;;;;;;;13.55;7.38;;;;;;;;;;5012498;28;20507;-74
2021/12/24 14:44:50;;;;;;;12.35;7.20;;;;;;;;;;5012115;28;20042;-73
2021/12/24 14:47:22;;;;;;;12.13;7.13;;;;;;;;;;5012212;28;20106;-74
2021/12/24 14:49:48;;;;;;;13.15;7.13;;;;;;;;;;5011867;28;20508;-73
2021/12/24 14:52:16;;;;;;;16.33;7.47;;;;;;;;;;5011951;28;20121;-73
2021/12/24 14:55:13;;;;;;;16.13;7.93;;;;;;;;;;5012049;28;20499;-73
2021/12/24 14:57:52;;;;;;;12.23;6.28;;;;;;;;;;5011480;28;20045;-73
2021/12/24 15:00:25;;;;;;;11.40;6.03;;;;;;;;;;5011778;28;20041;-73
2021/12/24 15:02:51;;;;;;;11.90;6.05;;;;;;;;;;5017411;22;20135;-73
2021/12/24 15:05:28;;;;;;;9.82;5.32;;;;;;;;;;4987567;28;20512;-74
2021/12/24 15:07:55;;;;;;;9.27;5.03;;;;;;;;;;4973090;28;20206;-73
2021/12/24 15:10:22;;;;;;;7.32;4.43;;;;;;;;;;4972958;28;20429;-73
2021/12/24 15:12:59;;;;;;;7.93;4.55;;;;;;;;;;4973009;28;20041;-73
2021/12/24 15:15:29;;;;;;;8.10;4.72;;;;;;;;;;4972791;28;20054;-73
2021/12/24 15:17:55;;;;;;;8.13;4.40;;;;;;;;;;4971809;28;20027;-73
2021/12/24 15:20:21;;;;;;;7.68;4.32;;;;;;;;;;4972635;28;20125;-73
2021/12/24 15:22:47;;;;;;;6.50;4.05;;;;;;;;;;4970997;28;20076;-73
2021/12/24 15:25:13;;;;;;;8.02;4.75;;;;;;;;;;4972346;28;20042;-73
2021/12/24 15:27:40;;;;;;;7.22;4.50;;;;;;;;;;4972637;28;20487;-73
2021/12/24 15:30:08;;;;;;;8.50;4.95;;;;;;;;;;4975846;28;20041;-73
2021/12/24 15:32:38;;;;;;;7.95;4.40;;;;;;;;;;4991600;28;20487;-74
2021/12/24 15:35:06;;;;;;;7.80;4.80;;;;;;;;;;4991908;28;20042;-73
2021/12/24 15:37:31;;;;;;;8.32;4.78;;;;;;;;;;4992038;28;20050;-73
2021/12/24 15:39:57;;;;;;;8.10;4.50;;;;;;;;;;4991454;28;20061;-73
2021/12/24 15:42:27;;;;;;;8.30;5.05;;;;;;;;;;4991384;28;20053;-73
2021/12/24 15:44:53;;;;;;;9.60;4.90;;;;;;;;;;4991573;28;20508;-73
2021/12/24 15:47:19;;;;;;;6.80;4.13;;;;;;;;;;4991580;28;20097;-73
2021/12/24 15:49:45;;;;;;;8.45;5.40;;;;;;;;;;4990595;28;20047;-73
2021/12/24 15:52:11;;;;;;;10.45;5.28;;;;;;;;;;4991715;28;20038;-73
2021/12/24 15:54:37;;;;;;;8.05;4.78;;;;;;;;;;4991488;28;20504;-73
2021/12/24 15:57:04;;;;;;;7.70;4.00;;;;;;;;;;4991715;28;20048;-73
2021/12/24 15:59:34;;;;;;;7.13;4.18;;;;;;;;;;4991558;28;20132;-73
2021/12/24 16:02:01;;;;;;;8.30;4.93;;;;;;;;;;4991558;28;20047;-73
2021/12/24 16:04:27;;;;;;;9.00;5.65;;;;;;;;;;4991697;28;20042;-72
2021/12/24 16:06:53;;;;;;;8.27;5.53;;;;;;;;;;4991586;28;20043;-72
2021/12/24 16:09:21;;;;;;;9.13;4.95;;;;;;;;;;4991464;28;20048;-73
2021/12/24 16:11:48;;;;;;;6.50;4.55;;;;;;;;;;4991705;28;20404;-73
2021/12/24 16:14:14;;;;;;;6.05;3.72;;;;;;;;;;4991479;28;20034;-73
2021/12/24 16:16:44;;;;;;;6.32;3.70;;;;;;;;;;4991750;28;20449;-73
2021/12/24 16:19:14;;;;;;;5.85;3.90;;;;;;;;;;4991505;28;20046;-72
2021/12/24 16:21:42;;;;;;;6.72;4.20;;;;;;;;;;4990186;28;20453;-73
2021/12/24 16:24:08;;;;;;;6.18;3.78;;;;;;;;;;4991837;28;20050;-72
2021/12/24 16:26:35;;;;;;;6.22;4.20;;;;;;;;;;4991781;28;20404;-73
2021/12/24 16:29:02;;;;;;;7.00;3.92;;;;;;;;;;4993843;28;20043;-74
2021/12/24 16:31:28;;;;;;;6.05;3.70;;;;;;;;;;4995159;28;20042;-74
2021/12/24 16:33:54;;;;;;;5.65;3.20;;;;;;;;;;4994883;28;20485;-74
2021/12/24 16:36:20;;;;;;;6.35;3.70;;;;;;;;;;4994986;28;20042;-72
2021/12/24 16:38:46;;;;;;;6.25;3.70;;;;;;;;;;4994639;28;20061;-72
2021/12/24 16:41:12;;;;;;;5.72;3.70;;;;;;;;;;4994724;28;20473;-71
2021/12/24 16:43:38;;;;;;;7.32;3.97;;;;;;;;;;4994847;28;20038;-71
2021/12/24 16:46:04;;;;;;;7.15;3.88;;;;;;;;;;4994709;28;20125;-71
2021/12/24 16:48:30;;;;;;;5.78;3.60;;;;;;;;;;4994911;28;20034;-72
2021/12/24 16:50:57;;;;;;;5.80;3.65;;;;;;;;;;4994552;28;20030;-72